createdAt,value
2024-05-09T00:00:46.489Z,4.03
2024-05-09T00:03:14.333Z,4.68
2024-05-09T00:05:43.561Z,4.20
2024-05-09T00:08:11.915Z,4.20
2024-05-09T00:10:40.816Z,4.65
2024-05-09T00:13:11.002Z,4.70
2024-05-09T00:15:39.369Z,4.60
2024-05-09T00:18:08.575Z,4.45
2024-05-09T00:20:39.692Z,4.85
2024-05-09T00:23:11.622Z,4.70
2024-05-09T00:25:42.848Z,4.82
2024-05-09T00:28:14.224Z,4.80
2024-05-09T00:30:41.875Z,4.97
2024-05-09T00:33:10.772Z,4.90
2024-05-09T00:35:39.656Z,4.40
2024-05-09T00:38:07.477Z,5.07
2024-05-09T00:40:40.684Z,4.88
2024-05-09T00:43:12.523Z,5.35
2024-05-09T00:45:41.242Z,5.25
2024-05-09T00:48:13.410Z,5.70
2024-05-09T00:50:45.103Z,4.82
2024-05-09T00:53:15.406Z,5.43
2024-05-09T00:55:44.648Z,5.45
2024-05-09T00:58:18.204Z,5.75
2024-05-09T01:00:46.396Z,6.90
2024-05-09T01:03:15.084Z,5.97
2024-05-09T01:05:44.273Z,5.72
2024-05-09T01:08:13.067Z,5.75
2024-05-09T01:10:43.711Z,5.80
2024-05-09T01:13:12.792Z,5.55
2024-05-09T01:15:40.515Z,6.32
2024-05-09T01:18:12.209Z,5.85
2024-05-09T01:20:43.877Z,5.68
2024-05-09T01:23:15.575Z,5.60
2024-05-09T01:25:46.129Z,6.25
2024-05-09T01:28:15.140Z,5.95
2024-05-09T01:30:42.922Z,6.00
2024-05-09T01:33:12.094Z,6.00
2024-05-09T01:35:41.941Z,6.07
2024-05-09T01:38:14.102Z,6.07
2024-05-09T01:40:43.831Z,6.15
2024-05-09T01:43:12.223Z,6.07
2024-05-09T01:45:41.184Z,5.90
2024-05-09T01:48:10.469Z,6.32
2024-05-09T01:50:41.732Z,5.35
2024-05-09T01:53:13.828Z,6.20
2024-05-09T01:55:42.547Z,5.80
2024-05-09T01:58:10.507Z,6.28
2024-05-09T02:00:42.155Z,6.10
2024-05-09T02:03:15.870Z,5.72
2024-05-09T02:05:47.543Z,6.05
2024-05-09T02:08:21.492Z,6.03
2024-05-09T02:10:50.705Z,6.45
2024-05-09T02:13:18.549Z,6.18
2024-05-09T02:15:46.742Z,5.40
2024-05-09T02:18:14.605Z,5.72
2024-05-09T02:20:43.160Z,6.40
2024-05-09T02:23:11.408Z,7.65
2024-05-09T02:25:40.838Z,6.97
2024-05-09T02:28:08.597Z,6.50
2024-05-09T02:30:40.496Z,6.75
2024-05-09T02:33:12.112Z,7.00
2024-05-09T02:35:43.025Z,6.70
2024-05-09T02:38:11.951Z,6.95
2024-05-09T02:40:40.495Z,6.50
2024-05-09T02:43:12.013Z,7.22
2024-05-09T02:45:40.807Z,6.60
2024-05-09T02:48:13.656Z,7.20
2024-05-09T02:50:43.919Z,6.60
2024-05-09T02:53:12.325Z,7.07
2024-05-09T02:55:41.830Z,6.90
2024-05-09T02:58:10.300Z,7.10
2024-05-09T03:00:41.542Z,6.75
2024-05-09T03:03:13.595Z,7.20
2024-05-09T03:05:44.534Z,7.65
2024-05-09T03:08:12.755Z,7.28
2024-05-09T03:10:40.558Z,7.32
2024-05-09T03:13:15.924Z,6.95
2024-05-09T03:15:45.116Z,7.43
2024-05-09T03:18:13.456Z,7.00
2024-05-09T03:20:43.824Z,7.40
2024-05-09T03:23:11.793Z,7.90
2024-05-09T03:25:39.364Z,7.43
2024-05-09T03:28:07.218Z,6.97
2024-05-09T03:30:41.178Z,7.28
2024-05-09T03:33:12.471Z,7.32
2024-05-09T03:35:41.123Z,7.28
2024-05-09T03:38:08.851Z,7.90
2024-05-09T03:40:44.392Z,7.90
2024-05-09T03:43:13.617Z,7.43
2024-05-09T03:45:45.553Z,7.50
2024-05-09T03:48:13.515Z,7.80
2024-05-09T03:50:41.503Z,7.78
2024-05-09T03:53:14.872Z,7.90
2024-05-09T03:55:42.594Z,7.63
2024-05-09T03:58:12.654Z,7.38
2024-05-09T04:00:42.116Z,7.30
2024-05-09T04:03:11.886Z,7.88
2024-05-09T04:05:42.716Z,7.50
2024-05-09T04:08:15.384Z,7.30
2024-05-09T04:10:43.275Z,7.50
2024-05-09T04:13:11.894Z,7.68
2024-05-09T04:15:39.815Z,7.13
2024-05-09T04:18:07.678Z,7.43
2024-05-09T04:20:39.185Z,7.35
2024-05-09T04:23:13.843Z,7.68
2024-05-09T04:25:45.140Z,7.50
2024-05-09T04:28:14.439Z,7.70
2024-05-09T04:30:42.771Z,7.72
2024-05-09T04:33:13.189Z,7.95
2024-05-09T04:35:45.606Z,7.85
2024-05-09T04:38:14.616Z,7.82
2024-05-09T04:40:43.030Z,8.02
2024-05-09T04:43:19.535Z,7.95
2024-05-09T04:45:47.325Z,7.25
2024-05-09T04:48:16.375Z,7.53
2024-05-09T04:50:44.549Z,7.88
2024-05-09T04:53:16.615Z,7.47
2024-05-09T04:55:44.623Z,8.10
2024-05-09T04:58:12.312Z,8.73
2024-05-09T05:00:40.889Z,8.48
2024-05-09T05:03:14.191Z,7.80
2024-05-09T05:05:45.355Z,8.27
2024-05-09T05:08:18.868Z,7.90
2024-05-09T05:10:48.552Z,7.80
2024-05-09T05:13:20.003Z,7.88
2024-05-09T05:15:51.555Z,7.82
2024-05-09T05:18:19.685Z,7.95
2024-05-09T05:20:47.900Z,7.80
2024-05-09T05:23:19.895Z,7.95
2024-05-09T05:25:50.404Z,7.43
2024-05-09T05:28:19.467Z,7.68
2024-05-09T05:30:47.133Z,8.20
2024-05-09T05:33:18.151Z,7.70
2024-05-09T05:35:46.155Z,7.30
2024-05-09T05:38:13.690Z,7.47
2024-05-09T05:40:41.434Z,7.53
2024-05-09T05:43:17.339Z,7.70
2024-05-09T05:45:45.874Z,7.65
2024-05-09T05:48:16.248Z,7.25
2024-05-09T05:50:44.704Z,7.45
2024-05-09T05:53:13.007Z,7.10
2024-05-09T05:55:41.636Z,6.68
2024-05-09T05:58:10.747Z,6.90
2024-05-09T06:00:41.035Z,6.35
2024-05-09T06:03:11.441Z,6.65
2024-05-09T06:05:48.391Z,6.22
2024-05-09T06:08:15.955Z,6.75
2024-05-09T06:10:43.739Z,6.50
2024-05-09T06:13:14.406Z,6.57
2024-05-09T06:15:42.344Z,6.28
2024-05-09T06:18:11.730Z,6.50
2024-05-09T06:20:43.266Z,5.60
2024-05-09T06:23:12.835Z,5.60
2024-05-09T06:25:41.813Z,6.15
2024-05-09T06:28:09.768Z,5.97
2024-05-09T06:30:40.450Z,5.70
2024-05-09T06:33:13.844Z,5.93
2024-05-09T06:35:44.404Z,4.95
2024-05-09T06:38:12.551Z,5.88
2024-05-09T06:40:42.741Z,5.45
2024-05-09T06:43:16.964Z,5.57
2024-05-09T06:45:52.679Z,5.22
2024-05-09T06:48:21.438Z,6.05
2024-05-09T06:50:49.998Z,5.53
2024-05-09T06:53:22.113Z,5.70
2024-05-09T06:55:50.261Z,5.30
2024-05-09T06:58:17.782Z,5.57
2024-05-09T07:00:45.352Z,5.90
2024-05-09T07:03:17.810Z,5.10
2024-05-09T07:05:48.627Z,5.40
2024-05-09T07:08:18.148Z,5.35
2024-05-09T07:10:46.799Z,5.50
2024-05-09T07:13:15.324Z,5.43
2024-05-09T07:15:43.655Z,5.00
2024-05-09T07:18:18.287Z,5.20
2024-05-09T07:20:49.455Z,5.32
2024-05-09T07:23:18.544Z,5.70
2024-05-09T07:25:46.542Z,5.35
2024-05-09T07:28:19.349Z,5.40
2024-05-09T07:30:47.336Z,5.00
2024-05-09T07:33:22.083Z,5.10
2024-05-09T07:35:51.488Z,4.90
2024-05-09T07:38:20.168Z,4.50
2024-05-09T07:40:48.362Z,4.63
2024-05-09T07:43:16.503Z,4.88
2024-05-09T07:45:52.282Z,5.30
2024-05-09T07:52:38.820Z,4.50
2024-05-09T07:53:47.795Z,4.45
2024-05-09T07:56:21.083Z,4.07
2024-05-09T07:58:52.133Z,3.80
2024-05-09T08:01:20.504Z,3.80
2024-05-09T08:03:50.623Z,4.18
2024-05-09T08:06:18.377Z,4.10
2024-05-09T08:08:47.706Z,3.50
2024-05-09T08:11:15.641Z,3.60
2024-05-09T08:13:43.213Z,3.70
2024-05-09T08:16:11.223Z,3.35
2024-05-09T08:18:39.610Z,3.70
2024-05-09T08:21:07.307Z,3.60
2024-05-09T08:23:36.443Z,3.22
2024-05-09T08:26:04.100Z,3.58
2024-05-09T08:28:31.554Z,3.78
2024-05-09T08:31:00.011Z,4.25
2024-05-09T08:33:30.399Z,3.53
2024-05-09T08:35:58.450Z,5.10
2024-05-09T08:38:25.899Z,3.13
2024-05-09T08:40:53.787Z,2.85
2024-05-09T08:43:26.516Z,3.17
2024-05-09T08:45:54.205Z,2.85
2024-05-09T08:48:23.531Z,3.35
2024-05-09T08:50:53.502Z,2.80
2024-05-09T08:53:21.258Z,3.00
2024-05-09T08:55:51.868Z,2.58
2024-05-09T08:58:20.051Z,2.50
2024-05-09T09:00:48.677Z,2.53
2024-05-09T09:03:26.872Z,2.40
2024-05-09T09:06:11.465Z,2.90
2024-05-09T09:08:40.149Z,2.20
2024-05-09T09:11:07.926Z,2.83
2024-05-09T09:13:35.420Z,2.70
2024-05-09T09:16:04.132Z,2.75
2024-05-09T09:18:32.808Z,2.58
2024-05-09T09:21:03.376Z,2.50
2024-05-09T09:23:31.101Z,2.45
2024-05-09T09:26:00.123Z,3.17
2024-05-09T09:28:28.260Z,2.63
2024-05-09T09:31:03.383Z,2.60
2024-05-09T09:33:36.166Z,2.70
2024-05-09T09:36:05.816Z,2.45
2024-05-09T09:38:37.640Z,3.08
2024-05-09T09:41:08.659Z,2.88
2024-05-09T09:43:36.854Z,2.80
2024-05-09T09:46:08.733Z,3.30
2024-05-09T09:48:40.516Z,3.15
2024-05-09T09:51:08.283Z,3.00
2024-05-09T09:53:38.257Z,2.97
2024-05-09T09:56:08.177Z,2.88
2024-05-09T09:58:38.930Z,3.47
2024-05-09T10:01:06.506Z,2.97
2024-05-09T10:03:34.460Z,2.72
2024-05-09T10:06:04.484Z,3.08
2024-05-09T10:08:32.164Z,3.22
2024-05-09T10:11:04.367Z,3.20
2024-05-09T10:13:34.838Z,3.38
2024-05-09T10:16:12.316Z,2.75
2024-05-09T10:18:41.658Z,3.92
2024-05-09T10:21:20.046Z,2.70
2024-05-09T10:24:03.634Z,2.92
2024-05-09T10:26:36.945Z,3.10
2024-05-09T10:29:30.779Z,3.20
2024-05-09T10:31:59.911Z,3.20
2024-05-09T10:34:34.261Z,3.17
2024-05-09T10:37:04.971Z,3.47
2024-05-09T10:39:37.264Z,3.10
2024-05-09T10:42:09.978Z,3.58
2024-05-09T10:44:38.117Z,3.20
2024-05-09T10:47:05.708Z,3.65
2024-05-09T10:49:33.482Z,3.70
2024-05-09T10:52:03.840Z,3.20
2024-05-09T10:54:41.133Z,3.70
2024-05-09T10:57:08.612Z,3.50
2024-05-09T10:59:39.323Z,3.65
2024-05-09T11:02:10.324Z,3.20
2024-05-09T11:04:41.182Z,3.60
2024-05-09T11:07:13.549Z,3.38
2024-05-09T11:09:43.153Z,3.20
2024-05-09T11:12:11.033Z,3.38
2024-05-09T11:14:39.005Z,3.08
2024-05-09T11:17:08.988Z,3.20
2024-05-09T11:19:42.071Z,3.42
2024-05-09T11:22:09.829Z,3.00
2024-05-09T11:24:37.583Z,3.20
2024-05-09T11:27:06.325Z,2.78
2024-05-09T11:29:42.307Z,3.35
2024-05-09T11:32:12.123Z,2.97
2024-05-09T11:34:41.826Z,3.15
2024-05-09T11:37:10.842Z,3.08
2024-05-09T11:39:38.411Z,2.85
2024-05-09T11:42:06.247Z,3.40
2024-05-09T11:44:33.705Z,2.90
2024-05-09T11:47:01.312Z,3.85
2024-05-09T11:49:28.892Z,13.02
2024-05-09T11:51:56.603Z,10.07
2024-05-09T11:54:24.337Z,10.77
2024-05-09T11:56:51.985Z,6.82
2024-05-09T11:59:19.446Z,4.53
2024-05-09T12:01:47.000Z,10.02
2024-05-09T12:04:14.826Z,4.75
2024-05-09T12:06:45.434Z,9.35
2024-05-09T12:09:13.082Z,5.15
2024-05-09T12:11:40.605Z,5.35
2024-05-09T12:14:08.187Z,4.63
2024-05-09T12:16:35.853Z,4.60
2024-05-09T12:19:03.519Z,3.58
2024-05-09T12:21:31.133Z,2.85
2024-05-09T12:23:58.687Z,3.38
2024-05-09T12:26:26.510Z,4.00
2024-05-09T12:28:54.105Z,25.83
2024-05-09T12:31:21.915Z,21.55
2024-05-09T12:33:49.491Z,31.73
2024-05-09T12:36:17.060Z,14.63
2024-05-09T12:38:44.517Z,3.95
2024-05-09T12:41:12.021Z,2.85
2024-05-09T12:43:39.557Z,2.70
2024-05-09T12:46:07.297Z,2.80
2024-05-09T12:48:34.918Z,2.70
2024-05-09T12:51:02.613Z,2.50
2024-05-09T12:53:30.131Z,2.30
2024-05-09T12:56:01.848Z,2.63
2024-05-09T12:58:31.024Z,2.15
2024-05-09T13:00:59.252Z,2.67
2024-05-09T13:03:26.865Z,2.40
2024-05-09T13:05:54.827Z,3.00
2024-05-09T13:08:22.793Z,9.25
2024-05-09T13:10:50.940Z,30.02
2024-05-09T13:13:18.707Z,25.17
2024-05-09T13:15:46.256Z,61.63
2024-05-09T13:18:14.354Z,37.63
2024-05-09T13:20:41.950Z,92.00
2024-05-09T13:23:09.554Z,90.03
2024-05-09T13:25:37.876Z,57.88
2024-05-09T13:28:07.591Z,93.55
2024-05-09T13:30:40.306Z,95.07
2024-05-09T13:33:11.872Z,11.80
2024-05-09T13:35:47.491Z,3.80
2024-05-09T13:38:20.137Z,8.95
2024-05-09T13:40:49.209Z,13.30
2024-05-09T13:43:17.816Z,29.63
2024-05-09T13:45:45.674Z,7.78
2024-05-09T13:48:13.457Z,8.20
2024-05-09T13:50:41.421Z,5.53
2024-05-09T13:53:09.301Z,11.80
2024-05-09T13:55:40.645Z,3.85
2024-05-09T13:58:09.582Z,3.20
2024-05-09T14:00:45.204Z,2.42
2024-05-09T14:03:19.307Z,2.60
2024-05-09T14:05:50.208Z,2.40
2024-05-09T14:08:19.839Z,2.42
2024-05-09T14:10:51.166Z,2.05
2024-05-09T14:13:19.591Z,2.30
2024-05-09T14:15:47.585Z,2.30
2024-05-09T14:18:15.432Z,2.30
2024-05-09T14:20:43.558Z,2.20
2024-05-09T14:23:11.349Z,2.15
2024-05-09T14:25:42.307Z,2.70
2024-05-09T14:28:12.844Z,2.83
2024-05-09T14:30:42.898Z,2.28
2024-05-09T14:33:11.721Z,3.20
2024-05-09T14:35:39.571Z,2.60
2024-05-09T14:38:08.725Z,2.40
2024-05-09T14:40:42.291Z,2.20
2024-05-09T14:43:15.463Z,3.20
2024-05-09T14:45:46.629Z,2.70
2024-05-09T14:48:15.359Z,2.55
2024-05-09T14:50:43.759Z,2.50
2024-05-09T14:53:13.674Z,3.00
2024-05-09T14:55:43.000Z,3.53
2024-05-09T14:58:12.736Z,3.42
2024-05-09T15:00:46.435Z,3.47
2024-05-09T15:03:19.645Z,3.15
2024-05-09T15:05:48.214Z,3.38
2024-05-09T15:08:18.226Z,3.30
2024-05-09T15:10:47.146Z,3.00
2024-05-09T15:13:16.712Z,2.83
2024-05-09T15:15:45.248Z,2.80
2024-05-09T15:18:14.317Z,2.50
2024-05-09T15:20:44.767Z,2.60
2024-05-09T15:23:12.452Z,2.30
2024-05-09T15:25:40.360Z,2.50
2024-05-09T15:28:08.286Z,2.20
2024-05-09T15:30:37.071Z,2.60
2024-05-09T15:33:06.798Z,2.67
2024-05-09T15:35:36.223Z,2.53
2024-05-09T15:38:04.554Z,3.15
2024-05-09T15:40:39.070Z,2.88
2024-05-09T15:43:10.910Z,2.95
2024-05-09T15:45:41.016Z,2.60
2024-05-09T15:48:10.858Z,4.05
2024-05-09T15:50:41.428Z,2.50
2024-05-09T15:53:12.575Z,2.90
2024-05-09T15:55:42.178Z,2.72
2024-05-09T15:58:10.572Z,2.90
2024-05-09T16:00:41.724Z,2.78
2024-05-09T16:03:13.455Z,2.83
2024-05-09T16:05:46.558Z,2.63
2024-05-09T16:10:45.831Z,2.67
2024-05-09T16:13:15.766Z,2.53
2024-05-09T16:15:44.308Z,2.40
2024-05-09T16:18:12.412Z,2.60
2024-05-09T16:20:42.206Z,2.58
2024-05-09T16:23:11.262Z,2.60
2024-05-09T16:25:41.720Z,2.50
2024-05-09T16:28:10.808Z,2.60
2024-05-09T16:30:39.932Z,2.78
2024-05-09T16:33:08.720Z,2.60
2024-05-09T16:35:39.177Z,2.60
2024-05-09T16:38:06.761Z,2.83
2024-05-09T16:40:38.951Z,2.75
2024-05-09T16:43:13.170Z,2.60
2024-05-09T16:45:46.129Z,2.70
2024-05-09T16:48:14.255Z,2.40
2024-05-09T16:50:42.398Z,2.80
2024-05-09T16:53:10.219Z,2.50
2024-05-09T16:55:38.369Z,2.70
2024-05-09T16:58:08.429Z,2.67
2024-05-09T17:00:41.385Z,2.70
2024-05-09T17:03:15.158Z,2.75
2024-05-09T17:05:48.494Z,2.72
2024-05-09T17:08:20.578Z,2.88
2024-05-09T17:10:49.345Z,2.57
2024-05-09T17:13:17.719Z,2.38
2024-05-09T17:15:45.562Z,2.55
2024-05-09T17:18:13.091Z,3.10
2024-05-09T17:20:40.680Z,3.10
2024-05-09T17:23:13.290Z,2.80
2024-05-09T17:25:42.697Z,2.60
2024-05-09T17:28:10.994Z,4.50
2024-05-09T17:30:40.704Z,2.95
2024-05-09T17:33:11.189Z,2.80
2024-05-09T17:35:39.945Z,2.70
2024-05-09T17:38:07.966Z,2.70
2024-05-09T17:40:37.622Z,2.42
2024-05-09T17:43:09.410Z,2.60
2024-05-09T17:45:40.849Z,3.00
2024-05-09T17:48:11.055Z,2.90
2024-05-09T17:50:40.101Z,2.70
2024-05-09T17:53:08.676Z,2.75
2024-05-09T17:55:37.138Z,3.03
2024-05-09T17:58:05.865Z,2.95
2024-05-09T18:00:39.216Z,3.10
2024-05-09T18:03:12.038Z,2.90
2024-05-09T18:05:41.611Z,3.20
2024-05-09T18:08:09.734Z,3.30
2024-05-09T18:10:39.702Z,3.20
2024-05-09T18:13:09.374Z,3.30
2024-05-09T18:15:38.292Z,3.20
2024-05-09T18:18:07.564Z,3.05
2024-05-09T18:20:42.288Z,3.17
2024-05-09T18:23:16.470Z,3.40
2024-05-09T18:25:46.730Z,3.10
2024-05-09T18:28:15.614Z,3.50
2024-05-09T18:30:43.410Z,3.00
2024-05-09T18:33:12.076Z,3.78
2024-05-09T18:35:43.798Z,3.15
2024-05-09T18:38:11.612Z,3.67
2024-05-09T18:40:41.054Z,3.72
2024-05-09T18:43:10.509Z,3.85
2024-05-09T18:45:38.820Z,3.17
2024-05-09T18:48:09.117Z,3.50
2024-05-09T18:50:40.109Z,3.22
2024-05-09T18:53:11.805Z,3.70
2024-05-09T18:55:41.715Z,3.20
2024-05-09T18:58:09.319Z,3.63
2024-05-09T19:00:39.650Z,3.25
2024-05-09T19:03:12.408Z,3.10
2024-05-09T19:05:43.871Z,3.30
2024-05-09T19:08:12.870Z,3.70
2024-05-09T19:10:41.201Z,3.40
2024-05-09T19:13:12.364Z,3.70
2024-05-09T19:15:43.240Z,3.60
2024-05-09T19:18:13.961Z,4.00
2024-05-09T19:20:42.485Z,3.85
2024-05-09T19:23:11.544Z,4.45
2024-05-09T19:25:39.209Z,4.00
2024-05-09T19:28:07.079Z,4.60
2024-05-09T19:30:40.071Z,4.45
2024-05-09T19:33:12.725Z,4.30
2024-05-09T19:35:42.792Z,9.63
2024-05-09T19:38:11.137Z,4.55
2024-05-09T19:40:39.084Z,4.40
2024-05-09T19:43:07.043Z,6.00
2024-05-09T19:45:35.787Z,4.55
2024-05-09T19:48:06.333Z,4.40
2024-05-09T19:50:41.479Z,4.40
2024-05-09T19:53:13.300Z,4.60
2024-05-09T19:55:42.116Z,4.70
2024-05-09T19:58:10.719Z,4.70
2024-05-09T20:00:41.746Z,4.90
2024-05-09T20:03:15.307Z,4.38
2024-05-09T20:05:46.594Z,4.78
2024-05-09T20:08:14.792Z,4.53
2024-05-09T20:10:42.541Z,4.28
2024-05-09T20:13:10.253Z,4.53
2024-05-09T20:15:38.279Z,4.50
2024-05-09T20:18:06.734Z,4.47
2024-05-09T20:20:39.571Z,4.50
2024-05-09T20:23:11.976Z,4.85
2024-05-09T20:25:40.510Z,4.30
2024-05-09T20:28:08.431Z,4.20
2024-05-09T20:30:36.749Z,4.50
2024-05-09T20:33:07.438Z,4.85
2024-05-09T20:35:36.418Z,4.43
2024-05-09T20:38:04.620Z,4.60
2024-05-09T20:40:36.731Z,4.57
2024-05-09T20:43:09.259Z,4.57
2024-05-09T20:45:37.416Z,4.50
2024-05-09T20:48:06.354Z,4.70
2024-05-09T20:50:39.268Z,4.38
2024-05-09T20:53:12.137Z,4.40
2024-05-09T20:55:40.611Z,4.18
2024-05-09T20:58:09.928Z,4.43
2024-05-09T21:00:41.430Z,4.60
2024-05-09T21:03:13.501Z,4.25
2024-05-09T21:05:42.160Z,4.60
2024-05-09T21:08:09.755Z,4.15
2024-05-09T21:10:37.804Z,3.92
2024-05-09T21:13:06.771Z,4.35
2024-05-09T21:15:35.847Z,4.30
2024-05-09T21:18:04.586Z,4.55
2024-05-09T21:20:34.582Z,3.90
2024-05-09T21:23:02.869Z,4.28
2024-05-09T21:25:31.146Z,4.00
2024-05-09T21:27:58.985Z,4.53
2024-05-09T21:30:33.138Z,4.22
2024-05-09T21:33:10.582Z,4.40
2024-05-09T21:35:40.905Z,4.55
2024-05-09T21:38:08.714Z,3.95
2024-05-09T21:40:37.911Z,4.40
2024-05-09T21:43:09.367Z,4.38
2024-05-09T21:45:37.416Z,4.60
2024-05-09T21:48:07.264Z,5.05
2024-05-09T21:50:40.316Z,4.90
2024-05-09T21:53:11.920Z,4.97
2024-05-09T21:55:40.097Z,5.25
2024-05-09T21:58:08.015Z,5.13
2024-05-09T22:00:39.272Z,5.35
2024-05-09T22:03:08.467Z,5.60
2024-05-09T22:05:37.661Z,5.10
2024-05-09T22:08:05.969Z,5.13
2024-05-09T22:10:35.905Z,5.38
2024-05-09T22:13:06.293Z,5.43
2024-05-09T22:15:37.459Z,5.72
2024-05-09T22:18:07.303Z,5.80
2024-05-09T22:20:38.472Z,5.45
2024-05-09T22:23:08.598Z,5.80
2024-05-09T22:25:38.750Z,5.80
2024-05-09T22:28:06.998Z,6.40
2024-05-09T22:30:38.294Z,6.78
2024-05-09T22:35:37.823Z,6.05
2024-05-09T22:38:05.593Z,6.10
2024-05-09T22:40:42.716Z,6.47
2024-05-09T22:43:24.298Z,6.80
2024-05-09T22:45:54.744Z,5.93
2024-05-09T22:48:24.359Z,6.53
2024-05-09T22:50:54.253Z,6.55
2024-05-09T22:53:25.025Z,6.95
2024-05-09T22:55:53.337Z,6.60
2024-05-09T22:58:21.274Z,7.10
2024-05-09T23:00:49.077Z,6.60
2024-05-09T23:03:16.930Z,6.65
2024-05-09T23:05:44.518Z,7.00
2024-05-09T23:08:11.966Z,7.03
2024-05-09T23:10:39.530Z,6.43
2024-05-09T23:13:07.995Z,7.13
2024-05-09T23:15:39.837Z,6.93
2024-05-09T23:18:07.966Z,7.20
2024-05-09T23:20:38.882Z,7.03
2024-05-09T23:23:09.426Z,6.67
2024-05-09T23:25:38.035Z,7.25
2024-05-09T23:28:06.137Z,7.65
2024-05-09T23:30:38.491Z,7.03
2024-05-09T23:33:11.774Z,7.13
2024-05-09T23:35:43.435Z,7.37
2024-05-09T23:38:11.449Z,9.00
2024-05-09T23:40:41.046Z,7.80
2024-05-09T23:43:11.365Z,7.30
2024-05-09T23:45:39.994Z,7.75
2024-05-09T23:48:08.914Z,7.38
2024-05-09T23:50:38.519Z,7.60
2024-05-09T23:53:09.201Z,7.20
2024-05-09T23:55:38.112Z,7.63
2024-05-09T23:58:07.003Z,7.70
